createdAt,value
2017-11-21T00:01:55.081Z,94.40
2017-11-21T00:05:02.521Z,94.60
2017-11-21T00:08:08.141Z,94.80
2017-11-21T00:11:13.817Z,94.50
2017-11-21T00:14:20.061Z,94.70
2017-11-21T00:17:26.719Z,94.70
2017-11-21T00:20:31.457Z,94.80
2017-11-21T00:23:37.159Z,95.00
2017-11-21T00:26:42.297Z,95.00
2017-11-21T00:29:47.307Z,95.10
2017-11-21T00:32:54.329Z,95.10
2017-11-21T00:36:02.145Z,95.40
2017-11-21T00:39:10.872Z,95.40
2017-11-21T00:42:22.029Z,95.30
2017-11-21T00:45:32.742Z,95.50
2017-11-21T00:48:38.523Z,95.50
2017-11-21T00:51:44.672Z,95.30
2017-11-21T00:54:51.450Z,95.40
2017-11-21T00:57:58.112Z,95.50
2017-11-21T01:01:07.641Z,95.40
2017-11-21T01:04:13.239Z,95.30
2017-11-21T01:07:24.016Z,95.30
2017-11-21T01:10:29.168Z,95.40
2017-11-21T01:13:34.250Z,95.30
2017-11-21T01:16:39.916Z,95.30
2017-11-21T01:19:46.896Z,95.40
2017-11-21T01:22:54.805Z,95.40
2017-11-21T01:26:01.359Z,95.30
2017-11-21T01:29:08.377Z,95.30
2017-11-21T01:32:15.393Z,95.30
2017-11-21T01:35:21.900Z,95.30
2017-11-21T01:38:28.071Z,95.40
2017-11-21T01:41:33.537Z,95.40
2017-11-21T01:44:38.997Z,95.40
2017-11-21T01:47:44.070Z,95.20
2017-11-21T01:50:50.596Z,95.20
2017-11-21T01:53:55.699Z,95.30
2017-11-21T01:57:03.549Z,95.40
2017-11-21T02:00:17.028Z,95.40
2017-11-21T02:03:28.588Z,95.30
2017-11-21T02:06:40.809Z,95.20
2017-11-21T02:09:53.105Z,95.30
2017-11-21T02:12:58.531Z,95.30
2017-11-21T02:16:07.502Z,95.00
2017-11-21T02:19:13.802Z,94.80
2017-11-21T02:22:23.209Z,94.80
2017-11-21T02:25:30.520Z,94.60
2017-11-21T02:28:35.392Z,94.60
2017-11-21T02:31:42.741Z,94.60
2017-11-21T02:34:47.738Z,94.50
2017-11-21T02:37:55.012Z,94.60
2017-11-21T02:41:05.415Z,94.60
2017-11-21T02:44:10.300Z,94.60
2017-11-21T02:47:16.806Z,94.80
2017-11-21T02:50:22.715Z,94.60
2017-11-21T02:53:29.836Z,94.50
2017-11-21T02:56:37.196Z,94.50
2017-11-21T02:59:52.810Z,94.50
2017-11-21T03:02:59.755Z,94.50
2017-11-21T03:06:07.565Z,94.50
2017-11-21T03:09:13.073Z,94.50
2017-11-21T03:12:24.813Z,94.50
2017-11-21T03:15:29.856Z,94.40
2017-11-21T03:18:34.817Z,94.50
2017-11-21T03:21:53.716Z,94.40
2017-11-21T03:25:11.213Z,94.70
2017-11-21T03:28:24.457Z,94.40
2017-11-21T03:31:30.697Z,94.30
2017-11-21T03:34:35.792Z,94.30
2017-11-21T03:37:41.368Z,94.40
2017-11-21T03:40:47.477Z,94.40
2017-11-21T03:43:52.333Z,94.30
2017-11-21T03:46:57.475Z,94.30
2017-11-21T03:50:03.194Z,94.30
2017-11-21T03:53:09.043Z,94.30
2017-11-21T03:56:15.264Z,94.40
2017-11-21T03:59:21.602Z,94.30
2017-11-21T04:02:26.309Z,94.40
2017-11-21T04:05:31.161Z,94.40
2017-11-21T04:08:36.929Z,94.30
2017-11-21T04:11:45.395Z,94.10
2017-11-21T04:14:51.886Z,94.20
2017-11-21T04:18:00.144Z,94.20
2017-11-21T04:21:08.457Z,94.30
2017-11-21T04:24:14.376Z,94.20
2017-11-21T04:27:25.557Z,94.20
2017-11-21T04:30:31.202Z,94.20
2017-11-21T04:33:36.629Z,94.20
2017-11-21T04:36:42.292Z,94.00
2017-11-21T04:39:47.134Z,94.00
2017-11-21T04:43:03.061Z,94.10
2017-11-21T04:46:17.272Z,94.00
2017-11-21T04:49:25.896Z,94.40
2017-11-21T04:52:31.982Z,93.90
2017-11-21T04:55:37.430Z,94.00
2017-11-21T04:58:49.197Z,93.90
2017-11-21T05:01:55.050Z,94.00
2017-11-21T05:05:00.671Z,94.00
2017-11-21T05:08:06.383Z,93.90
2017-11-21T05:11:12.816Z,94.30
2017-11-21T05:14:17.997Z,94.30
2017-11-21T05:17:23.419Z,94.30
2017-11-21T05:20:28.813Z,94.30
2017-11-21T05:23:34.264Z,94.40
2017-11-21T05:26:39.600Z,94.40
2017-11-21T05:29:45.084Z,94.50
2017-11-21T05:33:03.237Z,94.40
2017-11-21T05:36:10.057Z,94.40
2017-11-21T05:39:24.668Z,94.40
2017-11-21T05:42:32.321Z,94.40
2017-11-21T05:45:41.336Z,94.50
2017-11-21T05:48:52.517Z,94.50
2017-11-21T05:52:01.365Z,94.50
2017-11-21T05:55:06.146Z,94.50
2017-11-21T05:58:13.189Z,94.40
2017-11-21T06:01:20.125Z,94.40
2017-11-21T06:04:25.121Z,94.70
2017-11-21T06:07:31.312Z,94.80
2017-11-21T06:10:44.668Z,94.60
2017-11-21T06:13:49.825Z,94.50
2017-11-21T06:16:54.677Z,94.60
2017-11-21T06:19:59.991Z,94.60
2017-11-21T06:23:05.559Z,94.60
2017-11-21T06:26:11.301Z,94.60
2017-11-21T06:29:21.548Z,94.60
2017-11-21T06:32:26.738Z,94.70
2017-11-21T06:35:31.577Z,94.60
2017-11-21T06:38:37.217Z,94.70
2017-11-21T06:41:42.132Z,94.60
2017-11-21T06:44:46.956Z,94.80
2017-11-21T06:47:52.624Z,95.00
2017-11-21T06:50:57.425Z,95.10
2017-11-21T06:54:03.081Z,94.90
2017-11-21T06:57:08.365Z,94.90
2017-11-21T07:00:13.408Z,95.10
2017-11-21T07:03:18.094Z,95.10
2017-11-21T07:06:23.937Z,95.20
2017-11-21T07:09:29.617Z,95.20
2017-11-21T07:12:34.504Z,95.30
2017-11-21T07:15:40.208Z,95.10
2017-11-21T07:18:45.378Z,95.10
2017-11-21T07:21:50.365Z,94.90
2017-11-21T07:24:55.264Z,94.90
2017-11-21T07:28:00.860Z,95.00
2017-11-21T07:31:05.615Z,95.20
2017-11-21T07:34:11.652Z,95.20
2017-11-21T07:37:18.544Z,95.20
2017-11-21T07:40:23.723Z,95.00
2017-11-21T07:43:29.177Z,94.90
2017-11-21T07:46:35.409Z,94.80
2017-11-21T07:49:41.257Z,94.80
2017-11-21T07:52:46.701Z,94.80
2017-11-21T07:55:51.885Z,94.90
2017-11-21T07:58:57.856Z,94.90
2017-11-21T08:02:03.040Z,94.90
2017-11-21T08:05:08.226Z,94.80
2017-11-21T08:08:13.436Z,94.80
2017-11-21T08:11:18.257Z,94.80
2017-11-21T08:14:23.350Z,94.80
2017-11-21T08:17:28.873Z,94.80
2017-11-21T08:20:34.453Z,94.80
2017-11-21T08:23:39.672Z,95.00
2017-11-21T08:26:44.364Z,95.20
2017-11-21T08:29:49.641Z,95.30
2017-11-21T08:32:54.677Z,95.10
2017-11-21T08:36:00.489Z,95.40
2017-11-21T08:39:06.761Z,95.50
2017-11-21T08:42:12.417Z,95.50
2017-11-21T08:45:17.262Z,95.50
2017-11-21T08:48:22.697Z,95.40
2017-11-21T08:51:28.192Z,95.30
2017-11-21T08:54:33.558Z,95.20
2017-11-21T08:57:39.913Z,95.20
2017-11-21T09:00:45.564Z,95.20
2017-11-21T09:03:51.370Z,95.00
2017-11-21T09:06:56.973Z,95.00
2017-11-21T09:10:02.298Z,95.00
2017-11-21T09:13:07.501Z,94.90
2017-11-21T09:16:12.874Z,95.00
2017-11-21T09:19:18.593Z,94.80
2017-11-21T09:22:24.158Z,94.80
2017-11-21T09:25:29.784Z,94.80
2017-11-21T09:28:35.190Z,94.90
2017-11-21T09:31:40.576Z,94.80
2017-11-21T09:34:45.581Z,94.70
2017-11-21T09:37:51.004Z,94.70
2017-11-21T09:40:56.372Z,94.80
2017-11-21T09:44:01.664Z,94.70
2017-11-21T09:47:06.749Z,95.00
2017-11-21T09:50:12.979Z,94.90
2017-11-21T09:53:18.169Z,94.90
2017-11-21T09:56:23.596Z,95.00
2017-11-21T09:59:28.474Z,94.90
2017-11-21T10:02:33.550Z,95.00
2017-11-21T10:05:38.649Z,94.40
2017-11-21T10:08:44.251Z,94.60
2017-11-21T10:11:49.128Z,94.80
2017-11-21T10:14:54.261Z,94.70
2017-11-21T10:17:59.776Z,94.50
2017-11-21T10:21:05.862Z,94.80
2017-11-21T10:24:10.856Z,94.80
2017-11-21T10:27:16.321Z,94.70
2017-11-21T10:30:22.193Z,94.60
2017-11-21T10:33:27.908Z,94.60
2017-11-21T10:36:33.112Z,94.50
2017-11-21T10:39:38.776Z,94.70
2017-11-21T10:42:45.076Z,95.00
2017-11-21T10:45:50.649Z,94.80
2017-11-21T10:48:56.807Z,94.70
2017-11-21T10:52:02.306Z,94.70
2017-11-21T10:55:07.725Z,94.50
2017-11-21T10:58:12.984Z,94.60
2017-11-21T11:01:18.877Z,94.20
2017-11-21T11:04:23.765Z,94.20
2017-11-21T11:07:29.063Z,94.20
2017-11-21T11:10:34.437Z,93.90
2017-11-21T11:13:39.832Z,94.00
2017-11-21T11:16:44.989Z,94.20
2017-11-21T11:19:51.277Z,94.80
2017-11-21T11:22:56.564Z,94.80
2017-11-21T11:26:02.084Z,94.70
2017-11-21T11:29:07.597Z,94.30
2017-11-21T11:32:14.212Z,94.00
2017-11-21T11:35:20.701Z,94.00
2017-11-21T11:38:26.364Z,94.00
2017-11-21T11:41:31.460Z,94.10
2017-11-21T11:44:36.193Z,94.00
2017-11-21T11:47:42.168Z,93.60
2017-11-21T11:50:47.241Z,93.60
2017-11-21T11:53:52.816Z,93.70
2017-11-21T11:56:58.121Z,93.70
2017-11-21T12:00:03.526Z,94.10
2017-11-21T12:03:09.980Z,93.90
2017-11-21T12:06:15.341Z,94.00
2017-11-21T12:09:20.525Z,93.80
2017-11-21T12:12:25.917Z,93.40
2017-11-21T12:15:31.637Z,93.50
2017-11-21T12:18:37.769Z,93.20
2017-11-21T12:21:42.578Z,93.20
2017-11-21T12:24:49.207Z,93.20
2017-11-21T12:27:54.731Z,92.60
2017-11-21T12:30:59.382Z,92.90
2017-11-21T12:34:04.356Z,93.50
2017-11-21T12:37:10.064Z,93.00
2017-11-21T12:40:15.524Z,92.60
2017-11-21T12:43:21.036Z,92.80
2017-11-21T12:46:27.057Z,92.60
2017-11-21T12:49:31.770Z,92.60
2017-11-21T12:52:37.009Z,92.90
2017-11-21T12:55:42.188Z,92.90
2017-11-21T12:58:47.635Z,93.40
2017-11-21T13:01:53.056Z,93.40
2017-11-21T13:04:58.768Z,93.30
2017-11-21T13:08:03.905Z,93.00
2017-11-21T13:11:09.097Z,92.70
2017-11-21T13:14:15.729Z,92.40
2017-11-21T13:17:21.193Z,92.90
2017-11-21T13:20:28.444Z,92.60
2017-11-21T13:23:33.610Z,92.40
2017-11-21T13:26:39.948Z,92.70
2017-11-21T13:29:45.718Z,92.00
2017-11-21T13:32:51.058Z,92.00
2017-11-21T13:35:55.832Z,92.40
2017-11-21T13:39:00.740Z,92.60
2017-11-21T13:42:05.834Z,92.00
2017-11-21T13:45:10.666Z,91.60
2017-11-21T13:48:15.952Z,91.10
2017-11-21T13:51:21.604Z,90.70
2017-11-21T13:54:27.089Z,90.70
2017-11-21T13:57:32.463Z,91.20
2017-11-21T14:00:38.013Z,91.90
2017-11-21T14:03:43.301Z,91.40
2017-11-21T14:06:48.488Z,91.40
2017-11-21T14:09:54.009Z,91.50
2017-11-21T14:13:01.102Z,91.50
2017-11-21T14:16:06.784Z,91.50
2017-11-21T14:19:12.898Z,91.00
2017-11-21T14:22:18.283Z,91.00
2017-11-21T14:25:23.523Z,90.80
2017-11-21T14:28:28.693Z,90.90
2017-11-21T14:31:35.382Z,91.70
2017-11-21T14:34:41.137Z,91.80
2017-11-21T14:37:46.509Z,91.80
2017-11-21T14:40:52.272Z,90.10
2017-11-21T14:43:58.741Z,90.20
2017-11-21T14:47:03.754Z,90.10
2017-11-21T14:50:09.414Z,90.30
2017-11-21T14:53:15.148Z,90.60
2017-11-21T14:56:19.861Z,90.40
2017-11-21T14:59:24.733Z,90.60
2017-11-21T15:02:30.133Z,90.40
2017-11-21T15:05:35.568Z,90.50
2017-11-21T15:08:41.265Z,90.60
2017-11-21T15:11:47.540Z,90.30
2017-11-21T15:14:52.946Z,90.30
2017-11-21T15:17:58.537Z,90.40
2017-11-21T15:21:04.172Z,90.40
2017-11-21T15:24:09.497Z,90.70
2017-11-21T15:27:15.123Z,91.00
2017-11-21T15:30:20.170Z,91.00
2017-11-21T15:33:25.769Z,91.10
2017-11-21T15:36:30.993Z,91.40
2017-11-21T15:39:35.694Z,91.40
2017-11-21T15:42:41.398Z,91.60
2017-11-21T15:45:46.435Z,91.70
2017-11-21T15:48:51.604Z,91.90
2017-11-21T15:51:57.389Z,92.90
2017-11-21T15:55:02.802Z,92.90
2017-11-21T15:58:07.827Z,93.00
2017-11-21T16:01:14.396Z,93.20
2017-11-21T16:04:25.386Z,93.00
2017-11-21T16:07:34.004Z,92.90
2017-11-21T16:10:39.621Z,92.80
2017-11-21T16:13:46.726Z,93.30
2017-11-21T16:16:51.974Z,93.30
2017-11-21T16:19:59.317Z,93.60
2017-11-21T16:23:04.574Z,93.60
2017-11-21T16:26:10.676Z,94.00
2017-11-21T16:29:17.397Z,93.60
2017-11-21T16:32:22.370Z,93.30
2017-11-21T16:35:27.549Z,93.50
2017-11-21T16:38:33.137Z,93.20
2017-11-21T16:41:47.060Z,93.00
2017-11-21T16:44:55.252Z,93.00
2017-11-21T16:48:02.346Z,93.20
2017-11-21T16:51:10.961Z,93.00
2017-11-21T16:54:16.585Z,93.00
2017-11-21T16:57:22.090Z,93.00
2017-11-21T17:00:27.154Z,92.90
2017-11-21T17:03:33.333Z,92.70
2017-11-21T17:06:40.194Z,92.30
2017-11-21T17:09:46.354Z,92.30
2017-11-21T17:12:55.897Z,92.10
2017-11-21T17:16:16.265Z,91.90
2017-11-21T17:19:22.607Z,91.60
2017-11-21T17:22:31.269Z,91.50
2017-11-21T17:25:39.206Z,91.50
2017-11-21T17:28:44.398Z,91.50
2017-11-21T17:31:50.857Z,91.40
2017-11-21T17:34:59.273Z,91.40
2017-11-21T17:38:04.277Z,91.20
2017-11-21T17:41:13.101Z,91.20
2017-11-21T17:44:20.796Z,91.00
2017-11-21T17:47:27.013Z,91.00
2017-11-21T17:50:32.634Z,91.00
2017-11-21T17:53:40.009Z,91.40
2017-11-21T17:56:45.212Z,91.40
2017-11-21T18:00:01.330Z,91.00
2017-11-21T18:03:07.709Z,91.00
2017-11-21T18:06:12.969Z,91.00
2017-11-21T18:09:17.793Z,91.00
2017-11-21T18:12:24.119Z,91.00
2017-11-21T18:15:29.766Z,90.80
2017-11-21T18:18:35.659Z,90.70
2017-11-21T18:21:41.493Z,90.70
2017-11-21T18:24:59.080Z,90.50
2017-11-21T18:28:04.181Z,90.50
2017-11-21T18:31:09.269Z,90.40
2017-11-21T18:34:14.926Z,89.90
2017-11-21T18:37:20.204Z,90.00
2017-11-21T18:40:25.696Z,90.20
2017-11-21T18:43:31.070Z,90.00
2017-11-21T18:46:36.244Z,89.80
2017-11-21T18:49:42.965Z,89.70
2017-11-21T18:52:52.473Z,89.90
2017-11-21T18:55:57.331Z,89.90
2017-11-21T18:59:03.609Z,90.10
2017-11-21T19:02:09.873Z,90.20
2017-11-21T19:05:18.773Z,90.30
2017-11-21T19:08:27.935Z,90.40
2017-11-21T19:11:34.176Z,90.20
2017-11-21T19:14:42.440Z,90.30
2017-11-21T19:17:51.797Z,90.10
2017-11-21T19:20:57.937Z,89.80
2017-11-21T19:24:03.721Z,89.80
2017-11-21T19:27:08.685Z,89.90
2017-11-21T19:30:13.524Z,89.80
2017-11-21T19:33:19.712Z,90.20
2017-11-21T19:36:24.662Z,90.20
2017-11-21T19:39:30.485Z,90.20
2017-11-21T19:42:35.612Z,90.00
2017-11-21T19:45:40.922Z,90.40
2017-11-21T19:48:46.126Z,90.50
2017-11-21T19:51:51.520Z,90.30
2017-11-21T19:54:56.700Z,90.60
2017-11-21T19:58:02.389Z,90.70
2017-11-21T20:01:08.431Z,90.80
2017-11-21T20:04:13.920Z,90.70
2017-11-21T20:07:19.722Z,91.60
2017-11-21T20:10:29.005Z,91.60
2017-11-21T20:13:37.325Z,91.50
2017-11-21T20:16:43.124Z,92.00
2017-11-21T20:19:49.206Z,92.30
2017-11-21T20:22:54.490Z,92.30
2017-11-21T20:25:59.243Z,92.30
2017-11-21T20:29:04.232Z,92.30
2017-11-21T20:32:09.937Z,92.00
2017-11-21T20:35:18.154Z,91.90
2017-11-21T20:38:24.802Z,91.80
2017-11-21T20:41:41.421Z,91.50
2017-11-21T20:44:47.187Z,91.50
2017-11-21T20:47:52.034Z,91.20
2017-11-21T20:50:58.384Z,91.20
2017-11-21T20:54:21.164Z,91.50
2017-11-21T20:57:25.936Z,91.70
2017-11-21T21:00:32.001Z,91.70
2017-11-21T21:03:37.783Z,91.60
2017-11-21T21:06:44.586Z,91.50
2017-11-21T21:09:50.595Z,91.40
2017-11-21T21:12:57.001Z,91.40
2017-11-21T21:16:08.228Z,91.50
2017-11-21T21:19:13.893Z,91.70
2017-11-21T21:22:26.740Z,93.00
2017-11-21T21:25:33.028Z,93.00
2017-11-21T21:28:49.990Z,93.40
2017-11-21T21:31:56.469Z,92.70
2017-11-21T21:35:01.828Z,93.00
2017-11-21T21:38:08.780Z,92.60
2017-11-21T21:41:16.788Z,92.80
2017-11-21T21:44:24.996Z,93.20
2017-11-21T21:47:30.119Z,92.90
2017-11-21T21:50:42.500Z,92.50
2017-11-21T21:53:47.425Z,92.20
2017-11-21T21:56:54.852Z,91.70
2017-11-21T22:00:02.851Z,90.90
2017-11-21T22:03:08.715Z,91.30
2017-11-21T22:06:16.221Z,91.50
2017-11-21T22:09:21.140Z,91.90
2017-11-21T22:12:27.904Z,92.20
2017-11-21T22:15:35.489Z,92.80
2017-11-21T22:18:43.069Z,92.90
2017-11-21T22:21:51.540Z,93.20
2017-11-21T22:24:57.257Z,93.40
2017-11-21T22:28:02.548Z,93.60
2017-11-21T22:31:08.984Z,93.50
2017-11-21T22:34:21.503Z,93.70
2017-11-21T22:37:30.457Z,93.90
2017-11-21T22:40:38.880Z,93.90
2017-11-21T22:43:43.834Z,93.90
2017-11-21T22:46:58.264Z,94.00
2017-11-21T22:50:10.212Z,94.20
2017-11-21T22:53:16.877Z,94.30
2017-11-21T22:56:22.014Z,94.70
2017-11-21T22:59:30.237Z,94.80
2017-11-21T23:02:48.696Z,95.80
2017-11-21T23:05:54.129Z,95.10
2017-11-21T23:08:59.891Z,95.10
2017-11-21T23:12:09.310Z,95.10
2017-11-21T23:15:14.856Z,95.90
2017-11-21T23:18:22.135Z,95.90
2017-11-21T23:21:27.997Z,94.50
2017-11-21T23:24:35.428Z,94.50
2017-11-21T23:27:41.028Z,93.60
2017-11-21T23:30:47.881Z,92.90
2017-11-21T23:34:02.742Z,92.80
2017-11-21T23:37:08.204Z,92.70
2017-11-21T23:40:16.464Z,92.20
2017-11-21T23:43:26.457Z,92.00
2017-11-21T23:46:35.482Z,92.00
2017-11-21T23:49:40.509Z,91.70
2017-11-21T23:52:45.570Z,91.20
2017-11-21T23:55:50.672Z,90.60
2017-11-21T23:58:56.394Z,90.50
